Time;durP1;ratioP1;P1;durP2;ratioP2;P2;SDS_P1;SDS_P2;PMS_P1;PMS_P2;Temp;Humidity;BMP_temperature;BMP_pressure;BME280_temperature;BME280_humidity;BME280_pressure;Samples;Min_cycle;Max_cycle;Signal;HPM_P1;HPM_P2
2022/05/02 00:00:46;;;;;;;5.55;2.15;;;;;;;12.98;100.00;100336.78;7392887;19;20015;-55
2022/05/02 00:03:13;;;;;;;1.85;1.38;;;;;;;13.00;100.00;100337.06;7393170;19;20038;-55
2022/05/02 00:05:39;;;;;;;5.57;1.92;;;;;;;13.01;100.00;100338.63;7392265;19;20007;-55
2022/05/02 00:08:06;;;;;;;7.13;3.25;;;;;;;13.01;100.00;100332.25;7392077;19;20011;-56
2022/05/02 00:10:33;;;;;;;3.47;1.77;;;;;;;13.00;100.00;100339.84;7391284;19;20466;-55
2022/05/02 00:13:00;;;;;;;4.47;2.13;;;;;;;12.97;100.00;100329.66;7391618;19;20014;-55
2022/05/02 00:15:27;;;;;;;4.25;2.17;;;;;;;12.97;100.00;100338.03;7391989;19;20015;-55
2022/05/02 00:17:57;;;;;;;9.70;2.38;;;;;;;12.95;100.00;100329.34;7391142;19;20487;-56
2022/05/02 00:20:34;;;;;;;5.38;1.85;;;;;;;12.92;100.00;100325.50;7392032;19;20410;-55
2022/05/02 00:23:05;;;;;;;5.40;2.40;;;;;;;12.90;100.00;100328.00;7394163;19;20011;-89
2022/05/02 00:25:32;;;;;;;4.13;1.85;;;;;;;12.86;100.00;100327.41;7396798;19;20015;-88
2022/05/02 00:27:59;;;;;;;4.47;1.85;;;;;;;12.85;100.00;100325.09;7392303;19;20018;-89
2022/05/02 00:30:26;;;;;;;9.32;2.13;;;;;;;12.80;100.00;100320.16;7395075;19;20010;-89
2022/05/02 00:32:53;;;;;;;4.72;2.35;;;;;;;12.78;100.00;100314.28;7396284;19;20018;-88
2022/05/02 00:35:19;;;;;;;2.78;1.73;;;;;;;12.76;100.00;100322.38;7397857;19;20010;-89
2022/05/02 00:37:47;;;;;;;4.57;2.25;;;;;;;12.78;100.00;100314.28;7395699;19;20714;-84
2022/05/02 00:40:16;;;;;;;4.72;1.60;;;;;;;12.82;100.00;100314.88;7391233;19;20047;-84
2022/05/02 00:42:43;;;;;;;6.57;1.95;;;;;;;12.96;100.00;100314.13;7394483;19;20015;-83
2022/05/02 00:45:11;;;;;;;8.00;2.35;;;;;;;12.93;100.00;100318.63;7391714;19;20015;-84
2022/05/02 00:47:37;;;;;;;5.50;2.03;;;;;;;12.95;100.00;100323.75;7389614;19;20042;-84
2022/05/02 00:50:06;;;;;;;7.70;3.40;;;;;;;12.98;100.00;100314.41;7393993;19;20014;-86
2022/05/02 00:52:33;;;;;;;2.90;1.77;;;;;;;13.10;100.00;100315.41;7399051;19;20078;-94
2022/05/02 00:55:00;;;;;;;5.90;2.67;;;;;;;13.12;100.00;100313.69;7389675;19;20018;-80
2022/05/02 00:57:26;;;;;;;5.00;1.42;;;;;;;13.13;100.00;100318.00;7389593;19;20021;-81
2022/05/02 00:59:53;;;;;;;9.48;2.90;;;;;;;13.06;100.00;100326.03;7388215;19;20022;-82
2022/05/02 01:02:19;;;;;;;6.65;2.20;;;;;;;13.10;100.00;100323.81;7391337;19;20029;-82
2022/05/02 01:04:46;;;;;;;6.50;2.15;;;;;;;12.94;100.00;100327.81;7387760;19;20035;-82
2022/05/02 01:07:12;;;;;;;9.13;2.58;;;;;;;12.90;100.00;100328.00;7387817;19;20015;-81
2022/05/02 01:09:42;;;;;;;9.60;2.40;;;;;;;12.91;100.00;100323.16;7390196;19;20018;-82
2022/05/02 01:12:17;;;;;;;5.07;2.00;;;;;;;13.01;100.00;100330.22;7390616;19;20015;-82
2022/05/02 01:14:52;;;;;;;2.58;1.80;;;;;;;13.03;100.00;100329.75;7389636;19;20098;-81
2022/05/02 01:17:19;;;;;;;8.80;2.38;;;;;;;12.94;100.00;100327.81;7389668;19;20022;-79
2022/05/02 01:19:45;;;;;;;2.40;1.63;;;;;;;12.90;100.00;100321.63;7386583;19;20018;-81
2022/05/02 01:22:12;;;;;;;7.65;2.05;;;;;;;12.91;100.00;100323.94;7390179;19;20014;-81
2022/05/02 01:24:48;;;;;;;1.92;1.40;;;;;;;12.90;100.00;100321.63;7385441;19;20025;-81
2022/05/02 01:27:15;;;;;;;6.88;1.50;;;;;;;12.83;100.00;100316.41;7392457;19;20026;-82
2022/05/02 01:29:44;;;;;;;4.40;1.75;;;;;;;12.84;100.00;100323.56;7386574;19;20397;-82
2022/05/02 01:32:12;;;;;;;5.50;1.17;;;;;;;12.85;100.00;100317.47;7390825;19;20014;-82
2022/05/02 01:34:41;;;;;;;6.82;2.63;;;;;;;12.85;100.00;100316.72;7387903;19;20014;-82
2022/05/02 01:37:08;;;;;;;5.82;2.15;;;;;;;12.77;100.00;100321.91;7388122;19;20018;-82
2022/05/02 01:39:34;;;;;;;5.20;2.17;;;;;;;12.87;100.00;100317.00;7390400;19;20087;-81
2022/05/02 01:42:01;;;;;;;5.07;2.13;;;;;;;12.87;100.00;100322.59;7392940;19;20472;-80
2022/05/02 01:44:28;;;;;;;5.97;2.30;;;;;;;12.90;100.00;100316.81;7389356;19;20026;-80
2022/05/02 01:46:55;;;;;;;4.72;2.22;;;;;;;12.91;100.00;100317.56;7390263;19;20022;-80
2022/05/02 01:49:22;;;;;;;5.60;1.75;;;;;;;12.89;100.00;100323.66;7391346;19;20483;-80
2022/05/02 01:51:49;;;;;;;3.65;2.13;;;;;;;12.89;100.00;100325.66;7394406;19;20022;-81
2022/05/02 01:54:15;;;;;;;5.10;2.38;;;;;;;12.87;100.00;100323.38;7388208;19;20032;-79
2022/05/02 01:56:42;;;;;;;3.25;1.77;;;;;;;12.91;100.00;100321.16;7389687;19;20342;-79
2022/05/02 01:59:08;;;;;;;4.13;1.55;;;;;;;12.84;100.00;100323.56;7388909;19;20010;-79
2022/05/02 02:01:35;;;;;;;2.75;1.63;;;;;;;12.82;100.00;100314.88;7392518;19;20493;-80
2022/05/02 02:05:48;;;;;;;6.80;2.25;;;;;;;12.84;100.00;100323.56;7389428;19;20052;-79
2022/05/02 02:06:51;;;;;;;5.13;2.22;;;;;;;12.81;100.00;100318.91;7390692;19;20015;-79
2022/05/02 02:09:17;;;;;;;4.75;1.85;;;;;;;12.83;100.00;100322.00;7391452;19;20032;-78
2022/05/02 02:11:44;;;;;;;5.32;1.65;;;;;;;12.81;100.00;100318.91;7393259;19;20015;-79
2022/05/02 02:14:10;;;;;;;5.63;2.78;;;;;;;12.78;100.00;100326.25;7390190;19;20018;-80
2022/05/02 02:16:36;;;;;;;9.43;2.63;;;;;;;12.81;100.00;100324.50;7390576;19;20007;-79
2022/05/02 02:19:04;;;;;;;8.45;2.42;;;;;;;12.75;100.00;100324.41;7391523;19;20023;-79
2022/05/02 02:21:33;;;;;;;1.80;1.67;;;;;;;12.76;100.00;100327.97;7392526;19;20022;-79
2022/05/02 02:24:00;;;;;;;5.63;2.67;;;;;;;12.78;100.00;100322.66;7390467;19;20028;-79
2022/05/02 02:26:26;;;;;;;4.30;1.58;;;;;;;12.76;100.00;100322.38;7389843;19;20035;-79
2022/05/02 02:28:52;;;;;;;7.13;2.50;;;;;;;12.76;100.00;100322.38;7388703;19;20406;-79
2022/05/02 02:31:18;;;;;;;5.63;2.65;;;;;;;12.73;100.00;100320.56;7390950;19;20539;-79
2022/05/02 02:33:44;;;;;;;5.53;2.22;;;;;;;12.69;100.00;100319.97;7388615;19;20026;-79
2022/05/02 02:36:10;;;;;;;5.57;2.25;;;;;;;12.61;100.00;100315.97;7389188;19;20018;-79
2022/05/02 02:38:36;;;;;;;5.38;1.73;;;;;;;12.63;100.00;100319.06;7389550;19;20107;-79
2022/05/02 02:41:02;;;;;;;6.28;1.67;;;;;;;12.61;100.00;100316.75;7390529;19;20018;-79
2022/05/02 02:43:29;;;;;;;3.95;1.27;;;;;;;12.64;100.00;100315.81;7389780;19;20505;-78
2022/05/02 02:45:55;;;;;;;2.78;1.70;;;;;;;12.75;100.00;100318.03;7389374;19;20011;-79
2022/05/02 02:48:21;;;;;;;6.43;2.67;;;;;;;12.75;100.00;100309.66;7387851;19;20495;-79
2022/05/02 02:50:47;;;;;;;6.45;2.50;;;;;;;12.73;100.00;100312.16;7392141;19;20014;-79
2022/05/02 02:53:13;;;;;;;7.57;3.40;;;;;;;12.69;100.00;100311.59;7389517;19;20019;-79
2022/05/02 02:55:40;;;;;;;7.50;2.35;;;;;;;12.69;100.00;100306.75;7392486;19;20010;-86
2022/05/02 02:58:06;;;;;;;4.60;2.08;;;;;;;12.66;100.00;100307.72;7389833;19;20481;-83
2022/05/02 03:00:32;;;;;;;7.55;2.53;;;;;;;12.62;100.00;100311.94;7388052;19;20498;-82
2022/05/02 03:02:58;;;;;;;4.70;2.90;;;;;;;12.57;100.00;100304.22;7388399;19;20010;-83
2022/05/02 03:08:10;;;;;;;13.20;2.35;;;;;;;12.60;100.00;100311.66;7390548;19;20021;-83
2022/05/02 03:10:36;;;;;;;5.32;2.40;;;;;;;12.63;100.00;100307.88;7391753;19;20031;-83
2022/05/02 03:13:04;;;;;;;4.68;1.85;;;;;;;12.61;100.00;100307.59;7390356;19;20042;-81
2022/05/02 03:15:31;;;;;;;3.95;2.20;;;;;;;12.65;100.00;100306.16;7385606;19;20010;-81
2022/05/02 03:17:58;;;;;;;9.77;2.85;;;;;;;12.65;100.00;100305.38;7388809;19;20014;-79
2022/05/02 03:22:58;;;;;;;7.00;1.98;;;;;;;12.22;100.00;100308.81;7424733;19;20339;-80
2022/05/02 03:25:24;;;;;;;3.80;1.80;;;;;;;12.44;100.00;100301.69;7426817;19;20025;-79
2022/05/02 03:27:50;;;;;;;5.25;2.50;;;;;;;12.46;100.00;100304.78;7428292;19;20010;-80
2022/05/02 03:30:16;;;;;;;12.10;2.33;;;;;;;12.50;100.00;100299.00;7427982;19;20476;-80
2022/05/02 03:32:42;;;;;;;4.82;1.45;;;;;;;12.45;100.00;100308.06;7432328;19;20019;-80
2022/05/02 03:35:09;;;;;;;5.78;2.53;;;;;;;12.45;100.00;100296.88;7424792;19;20037;-80
2022/05/02 03:37:35;;;;;;;4.85;2.42;;;;;;;12.45;100.00;100296.88;7425243;19;20014;-79
2022/05/02 03:40:02;;;;;;;6.72;3.13;;;;;;;12.52;100.00;100296.50;7427816;19;20026;-80
2022/05/02 03:42:28;;;;;;;7.63;2.35;;;;;;;12.53;100.00;100303.63;7428399;19;20033;-79
2022/05/02 03:44:54;;;;;;;5.47;2.05;;;;;;;12.55;100.00;100301.91;7425693;19;20010;-80
2022/05/02 03:47:20;;;;;;;5.85;2.05;;;;;;;12.53;100.00;100293.25;7424828;19;20345;-80
2022/05/02 03:49:46;;;;;;;3.30;1.73;;;;;;;12.55;100.00;100301.13;7427207;19;20026;-79
2022/05/02 03:52:12;;;;;;;4.82;2.08;;;;;;;12.56;100.00;100297.09;7427729;19;20014;-80
2022/05/02 03:54:39;;;;;;;1.58;1.48;;;;;;;12.57;100.00;100304.22;7424376;19;20029;-79
2022/05/02 03:57:05;;;;;;;7.75;2.35;;;;;;;12.52;100.00;100296.50;7426790;19;20038;-80
2022/05/02 03:59:32;;;;;;;7.93;2.67;;;;;;;12.50;100.00;100294.19;7427076;19;20380;-80
2022/05/02 04:01:58;;;;;;;3.08;2.38;;;;;;;12.45;100.00;100291.28;7428246;19;20401;-80
2022/05/02 04:04:24;;;;;;;8.02;1.98;;;;;;;12.41;100.00;100294.25;7423785;19;20011;-79
2022/05/02 04:06:50;;;;;;;3.05;2.58;;;;;;;12.40;100.00;100301.09;7427042;19;20025;-79
2022/05/02 04:09:16;;;;;;;3.85;2.35;;;;;;;12.47;100.00;100299.97;7426851;19;20021;-80
2022/05/02 04:11:42;;;;;;;5.32;1.88;;;;;;;12.47;100.00;100299.97;7429014;19;20406;-80
2022/05/02 04:14:08;;;;;;;6.97;2.30;;;;;;;12.43;100.00;100297.34;7425070;19;20014;-80
2022/05/02 04:16:35;;;;;;;9.02;2.88;;;;;;;12.37;100.00;100299.25;7426472;19;20011;-80
2022/05/02 04:19:01;;;;;;;4.65;2.20;;;;;;;12.34;100.00;100297.44;7426879;19;20015;-80
2022/05/02 04:21:27;;;;;;;4.18;2.15;;;;;;;12.34;100.00;100299.44;7426949;19;20024;-79
2022/05/02 04:23:53;;;;;;;7.93;2.80;;;;;;;12.40;100.00;100301.09;7421468;19;20674;-78
2022/05/02 04:26:19;;;;;;;5.80;2.63;;;;;;;12.34;100.00;100302.25;7419493;19;20022;-79
2022/05/02 04:28:45;;;;;;;6.45;2.28;;;;;;;12.29;100.00;100305.69;7417878;19;20018;-80
2022/05/02 04:31:11;;;;;;;10.82;3.03;;;;;;;12.31;100.00;100305.97;7424928;19;20523;-80
2022/05/02 04:33:39;;;;;;;2.15;1.60;;;;;;;12.31;100.00;100300.38;7403240;19;20041;-80
2022/05/02 04:36:06;;;;;;;8.38;1.77;;;;;;;12.32;100.00;100304.75;7397297;19;20026;-80
2022/05/02 04:38:32;;;;;;;6.63;2.45;;;;;;;12.30;100.00;100296.06;7397228;19;20006;-80
2022/05/02 04:40:59;;;;;;;4.35;2.88;;;;;;;12.32;100.00;100299.16;7396711;19;20018;-80
2022/05/02 04:43:25;;;;;;;10.07;2.17;;;;;;;12.34;100.00;100302.25;7396149;19;20018;-79
2022/05/02 04:45:52;;;;;;;6.90;2.08;;;;;;;12.32;100.00;100304.75;7396699;19;20547;-80
2022/05/02 04:48:18;;;;;;;4.18;2.35;;;;;;;12.36;100.00;100310.91;7397660;19;20109;-80
2022/05/02 04:50:44;;;;;;;4.63;1.83;;;;;;;12.38;100.00;100309.19;7397638;19;20007;-81
2022/05/02 04:53:11;;;;;;;5.68;3.75;;;;;;;12.41;100.00;100302.63;7396426;19;20018;-80
2022/05/02 04:55:37;;;;;;;8.50;2.90;;;;;;;12.41;100.00;100302.63;7395367;19;20022;-79
2022/05/02 04:58:03;;;;;;;12.57;3.70;;;;;;;12.41;100.00;100302.63;7396921;19;20011;-81
2022/05/02 05:00:29;;;;;;;7.38;3.00;;;;;;;12.44;100.00;100300.91;7394838;19;20014;-79
2022/05/02 05:02:55;;;;;;;4.32;1.92;;;;;;;12.47;100.00;100302.75;7393971;19;20037;-80
2022/05/02 05:05:22;;;;;;;9.80;2.72;;;;;;;12.47;100.00;100306.34;7395260;19;20018;-80
2022/05/02 05:07:48;;;;;;;8.85;3.58;;;;;;;12.52;100.00;100316.03;7396021;19;20015;-80
2022/05/02 05:10:14;;;;;;;7.38;2.28;;;;;;;12.62;100.00;100315.53;7394084;19;20038;-79
2022/05/02 05:12:55;;;;;;;10.27;3.45;;;;;;;12.65;100.00;100313.78;7398435;19;20015;-80
2022/05/02 05:18:24;;;;;;;6.03;2.28;;;;;;;12.70;100.00;100318.72;7394813;19;20365;-79
2022/05/02 05:21:08;;;;;;;6.50;1.70;;;;;;;12.72;100.00;100316.97;7395987;19;20018;-80
2022/05/02 05:24:10;;;;;;;10.68;2.20;;;;;;;12.79;100.00;100307.44;7394127;19;20052;-80
2022/05/02 05:26:51;;;;;;;7.63;2.92;;;;;;;12.78;100.00;100311.47;7393792;19;20010;-80
2022/05/02 05:29:35;;;;;;;7.43;2.97;;;;;;;12.79;100.00;100315.84;7394720;19;20022;-80
2022/05/02 05:32:10;;;;;;;7.35;2.85;;;;;;;12.84;100.00;100317.97;7398621;19;20523;-80
2022/05/02 05:35:06;;;;;;;8.57;2.97;;;;;;;12.88;100.00;100316.53;7391845;19;20035;-80
2022/05/02 05:38:01;;;;;;;3.28;2.40;;;;;;;12.92;100.00;100319.13;7392813;19;20019;-80
2022/05/02 05:40:35;;;;;;;8.77;2.42;;;;;;;12.97;100.00;100321.28;7395235;19;20015;-79
2022/05/02 05:43:10;;;;;;;7.88;2.30;;;;;;;13.05;100.00;100330.06;7394728;19;20043;-79
2022/05/02 05:45:42;;;;;;;8.70;2.28;;;;;;;13.05;100.00;100322.44;7392228;19;20476;-81
2022/05/02 05:48:11;;;;;;;11.25;2.97;;;;;;;13.08;100.00;100326.31;7394758;19;20472;-80
2022/05/02 05:50:42;;;;;;;9.55;3.72;;;;;;;13.09;100.00;100328.63;7395054;19;20086;-80
2022/05/02 05:53:49;;;;;;;10.73;3.75;;;;;;;13.10;100.00;100332.97;7392797;19;20294;-79
2022/05/02 05:56:18;;;;;;;18.48;3.70;;;;;;;13.19;100.00;100327.25;7391804;19;20006;-79
2022/05/02 05:59:04;;;;;;;15.65;4.47;;;;;;;13.19;100.00;100332.84;7392610;19;20013;-79
2022/05/02 06:01:45;;;;;;;12.95;4.70;;;;;;;13.24;100.00;100323.03;7394074;19;20579;-79
2022/05/02 06:04:13;;;;;;;;;;;;;;;13.30;100.00;100327.47;7393017;19;20035;-79
2022/05/02 06:06:40;;;;;;;25.05;6.40;;;;;;;13.34;100.00;100333.63;7392355;19;19974;-79
2022/05/02 06:09:06;;;;;;;27.52;8.40;;;;;;;13.37;100.00;100341.06;7391071;19;20011;-78
2022/05/02 06:11:33;;;;;;;19.38;5.72;;;;;;;13.38;100.00;100331.41;7394490;19;20015;-78
2022/05/02 06:14:02;;;;;;;25.70;7.35;;;;;;;13.44;100.00;100331.50;7392147;19;20028;-79
2022/05/02 06:19:24;;;;;;;23.95;7.50;;;;;;;13.58;100.00;100337.09;7393345;19;20019;-79
2022/05/02 06:21:50;;;;;;;26.45;6.38;;;;;;;13.60;100.00;100334.56;7393146;19;20029;-79
2022/05/02 06:24:16;;;;;;;14.50;4.72;;;;;;;13.62;100.00;100337.66;7392786;19;20467;-79
2022/05/02 06:26:49;;;;;;;13.18;4.15;;;;;;;13.67;100.00;100345.38;7394348;19;20022;-78
2022/05/02 06:29:18;;;;;;;12.55;5.85;;;;;;;13.74;100.00;100341.41;7394355;19;20091;-77
2022/05/02 06:31:50;;;;;;;14.35;4.07;;;;;;;13.91;100.00;100341.66;7396335;19;20042;-77
2022/05/02 06:34:23;;;;;;;12.82;4.85;;;;;;;14.00;100.00;100345.13;7391862;19;20023;-78
2022/05/02 06:37:37;;;;;;;13.05;5.38;;;;;;;14.09;100.00;100342.19;7395102;19;20011;-80
2022/05/02 06:40:05;;;;;;;12.90;4.32;;;;;;;14.13;100.00;100344.78;7391937;19;20040;-80
2022/05/02 06:42:34;;;;;;;8.43;4.28;;;;;;;14.17;100.00;100343.31;7394412;19;20011;-79
2022/05/02 06:45:10;;;;;;;12.60;4.30;;;;;;;14.16;100.00;100343.81;7386443;19;20043;-81
2022/05/02 06:48:01;;;;;;;20.95;5.32;;;;;;;14.20;100.00;100347.19;7386668;19;20014;-80
2022/05/02 06:50:32;;;;;;;45.45;11.63;;;;;;;14.17;100.00;100348.94;7387060;19;20369;-79
2022/05/02 06:55:59;;;;;;;30.67;10.05;;;;;;;14.27;100.00;100352.38;7393168;19;20342;-50
2022/05/02 06:58:39;;;;;;;8.23;3.97;;;;;;;14.31;100.00;100358.56;7388182;19;20017;-50
2022/05/02 07:01:14;;;;;;;11.35;5.00;;;;;;;14.36;100.00;100355.06;7391996;19;20006;-50
2022/05/02 07:04:02;;;;;;;16.73;6.38;;;;;;;14.44;100.00;100361.81;7393476;19;20014;-50
2022/05/02 07:06:46;;;;;;;22.67;6.03;;;;;;;14.51;100.00;100366.22;7392543;19;20030;-50
2022/05/02 07:09:27;;;;;;;12.25;3.25;;;;;;;14.52;100.00;100368.53;7392216;19;20021;-50
2022/05/02 07:12:11;;;;;;;9.30;3.88;;;;;;;14.55;100.00;100367.56;7393007;19;20488;-50
2022/05/02 07:14:55;;;;;;;9.73;3.53;;;;;;;14.56;100.00;100371.09;7391961;19;20407;-50
2022/05/02 07:17:42;;;;;;;13.40;4.63;;;;;;;14.52;100.00;100370.56;7392836;19;20007;-50
2022/05/02 07:20:19;;;;;;;12.27;3.90;;;;;;;14.54;100.00;100368.81;7391775;19;20003;-50
2022/05/02 07:22:51;;;;;;;4.15;2.08;;;;;;;14.55;100.00;100381.56;7391087;19;20029;-50
2022/05/02 07:25:20;;;;;;;15.40;4.88;;;;;;;14.56;100.00;100366.28;7391291;19;20039;-50
2022/05/02 07:28:11;;;;;;;16.23;5.72;;;;;;;14.61;100.00;100376.03;7388761;19;20010;-50
2022/05/02 07:30:38;;;;;;;16.55;5.22;;;;;;;14.67;100.00;100369.22;7389839;19;20011;-50
2022/05/02 07:33:08;;;;;;;17.15;4.93;;;;;;;14.72;100.00;100371.34;7389146;19;20015;-50
2022/05/02 07:35:35;;;;;;;10.57;4.43;;;;;;;14.81;100.00;100376.03;7389180;19;20018;-50
2022/05/02 07:38:02;;;;;;;10.32;4.72;;;;;;;14.84;100.00;100370.19;7389402;19;20010;-50
2022/05/02 07:40:30;;;;;;;7.57;2.78;;;;;;;14.89;100.00;100368.72;7389068;19;20449;-50
2022/05/02 07:42:58;;;;;;;12.43;4.50;;;;;;;14.98;100.00;100382.59;7386029;19;20351;-50
2022/05/02 07:45:28;;;;;;;10.70;3.70;;;;;;;15.03;100.00;100382.63;7392609;19;20025;-50
2022/05/02 07:47:58;;;;;;;12.50;3.45;;;;;;;15.06;100.00;100376.06;7388708;19;20015;-50
2022/05/02 07:50:26;;;;;;;13.27;5.03;;;;;;;15.20;100.00;100377.97;7387539;19;20631;-50
2022/05/02 07:52:54;;;;;;;10.32;4.00;;;;;;;15.31;100.00;100373.75;7389941;19;20014;-50
2022/05/02 07:55:24;;;;;;;14.98;4.50;;;;;;;15.37;100.00;100378.16;7387911;19;20010;-50
2022/05/02 07:57:51;;;;;;;10.30;4.28;;;;;;;15.36;100.00;100376.59;7386612;19;20011;-50
2022/05/02 08:00:17;;;;;;;9.82;3.63;;;;;;;15.46;100.00;100380.06;7387021;19;20038;-50
2022/05/02 08:02:44;;;;;;;13.00;4.97;;;;;;;15.46;100.00;100383.63;7390479;19;20090;-50
2022/05/02 08:05:10;;;;;;;14.13;4.18;;;;;;;15.53;100.00;100379.59;7388700;19;20010;-50
2022/05/02 08:07:42;;;;;;;9.73;4.25;;;;;;;15.63;100.00;100383.78;7388916;19;20015;-50
2022/05/02 08:10:21;;;;;;;13.13;4.88;;;;;;;15.79;100.00;100391.56;7395369;19;20022;-50
2022/05/02 08:13:05;;;;;;;10.65;3.83;;;;;;;15.90;100.00;100394.44;7395213;19;20066;-50
2022/05/02 08:15:45;;;;;;;13.07;4.43;;;;;;;15.99;100.00;100391.47;7397736;19;20015;-50
2022/05/02 08:18:39;;;;;;;10.57;3.60;;;;;;;16.13;100.00;100401.00;7395601;19;20006;-50
2022/05/02 08:21:13;;;;;;;11.35;4.38;;;;;;;16.06;100.00;100396.63;7395624;19;20010;-50
2022/05/02 08:27:27;;;;;;;11.45;4.25;;;;;;;16.24;100.00;100407.47;7393299;19;20011;-49
2022/05/02 08:30:08;;;;;;;9.05;3.25;;;;;;;16.30;100.00;100404.69;7394853;19;20478;-49
2022/05/02 08:32:59;;;;;;;9.48;4.10;;;;;;;16.17;100.00;100413.56;7397959;19;20370;-49
2022/05/02 08:35:47;;;;;;;3.72;2.65;;;;;;;16.14;100.00;100408.94;7395307;19;20011;-49
2022/05/02 08:38:22;;;;;;;8.57;3.75;;;;;;;16.13;100.00;100413.03;7394067;19;20030;-49
2022/05/02 08:41:26;;;;;;;6.72;3.38;;;;;;;16.29;100.00;100403.94;7394842;19;20011;-49
2022/05/02 08:44:26;;;;;;;16.38;4.63;;;;;;;16.39;100.00;100407.31;7393527;19;20351;-49
2022/05/02 08:47:30;;;;;;;11.77;3.58;;;;;;;16.46;100.00;100404.78;7394922;19;20046;-49
2022/05/02 08:50:17;;;;;;;8.10;2.65;;;;;;;16.60;100.00;100400.31;7394286;19;20034;-49
2022/05/02 08:52:52;;;;;;;5.22;2.30;;;;;;;16.69;100.00;100402.91;7400398;19;20010;-66
2022/05/02 09:02:16;;;;;;;6.68;2.90;;;;;;;17.14;100.00;100404.59;7394566;19;20359;-55
2022/05/02 09:05:16;;;;;;;10.63;3.40;;;;;;;17.47;100.00;100409.53;7392343;19;20070;-55
2022/05/02 09:08:10;;;;;;;5.63;2.58;;;;;;;17.77;100.00;100410.63;7394309;19;20017;-55
2022/05/02 09:10:55;;;;;;;6.85;2.95;;;;;;;17.85;100.00;100416.50;7393479;19;20440;-54
2022/05/02 09:13:40;;;;;;;5.30;2.33;;;;;;;17.70;100.00;100410.34;7393777;19;20048;-54
2022/05/02 09:16:09;;;;;;;6.15;3.10;;;;;;;17.71;100.00;100411.91;7391365;19;20006;-54
2022/05/02 09:18:42;;;;;;;8.70;2.63;;;;;;;17.62;100.00;100414.97;7392359;19;20046;-55
2022/05/02 09:21:26;;;;;;;5.97;2.95;;;;;;;17.67;100.00;100411.38;7394782;19;20086;-54
2022/05/02 09:24:13;;;;;;;8.75;3.08;;;;;;;17.73;100.00;100403.69;7392953;19;20021;-54
2022/05/02 09:26:58;;;;;;;8.82;3.20;;;;;;;17.75;100.00;100401.91;7393089;19;20014;-56
2022/05/02 09:29:42;;;;;;;6.57;2.83;;;;;;;17.74;100.00;100402.41;7392255;19;20007;-54
2022/05/02 09:32:57;;;;;;;11.38;2.55;;;;;;;17.64;100.00;100398.31;7395513;19;20014;-54
2022/05/02 09:35:34;;;;;;;9.15;3.35;;;;;;;17.49;100.00;100404.16;7389054;19;20018;-55
2022/05/02 09:38:22;;;;;;;4.85;1.88;;;;;;;17.38;100.00;100398.50;7392307;19;20015;-54
2022/05/02 09:40:59;;;;;;;6.88;3.17;;;;;;;17.29;100.00;100402.34;7393356;19;20030;-54
2022/05/02 09:49:43;;;;;;;6.68;3.20;;;;;;;17.10;100.00;100404.09;7392473;19;20006;-54
2022/05/02 09:52:25;;;;;;;6.90;2.22;;;;;;;17.07;100.00;100404.31;7395007;19;20017;-55
2022/05/02 09:57:56;;;;;;;6.60;2.17;;;;;;;17.31;100.00;100413.84;7391963;19;20011;-55
2022/05/02 10:03:32;;;;;;;3.35;1.13;;;;;;;17.15;100.00;100411.75;7389558;19;20015;-55
2022/05/02 10:06:04;;;;;;;3.85;1.80;;;;;;;17.27;100.00;100418.19;7390578;19;20046;-55
2022/05/02 10:09:17;;;;;;;4.93;1.65;;;;;;;17.19;100.00;100414.34;7390247;19;20018;-55
2022/05/02 10:11:56;;;;;;;7.28;2.35;;;;;;;17.31;100.00;100418.72;7392154;19;20018;-55
2022/05/02 10:14:43;;;;;;;4.85;1.83;;;;;;;17.38;100.00;100412.59;7392027;19;20006;-55
2022/05/02 10:17:17;;;;;;;4.65;2.15;;;;;;;17.43;100.00;100404.13;7390788;19;20010;-55
2022/05/02 10:20:16;;;;;;;7.22;2.05;;;;;;;17.43;100.00;100406.97;7388796;19;20023;-55
2022/05/02 10:23:10;;;;;;;2.30;1.92;;;;;;;17.42;100.00;100411.06;7392466;19;20022;-55
2022/05/02 10:25:41;;;;;;;3.90;1.85;;;;;;;17.22;100.00;100416.13;7391352;19;20328;-55
2022/05/02 10:28:21;;;;;;;4.90;2.50;;;;;;;17.12;100.00;100412.00;7391539;19;20015;-55
2022/05/02 10:31:03;;;;;;;5.30;2.55;;;;;;;17.32;100.00;100414.63;7389963;19;20011;-55
2022/05/02 10:33:44;;;;;;;7.55;2.33;;;;;;;17.39;100.00;100414.13;7390333;19;20011;-55
2022/05/02 10:36:12;;;;;;;6.40;2.95;;;;;;;17.36;100.00;100415.94;7390965;19;20015;-55
2022/05/02 10:38:53;;;;;;;7.05;2.25;;;;;;;17.37;100.00;100411.81;7391608;19;20003;-55
2022/05/02 10:41:23;;;;;;;4.90;1.33;;;;;;;17.42;100.00;100401.84;7392329;19;20010;-55
2022/05/02 10:43:53;;;;;;;4.63;1.17;;;;;;;17.47;100.00;100405.94;7391117;19;20014;-55
2022/05/02 10:46:21;;;;;;;7.35;2.22;;;;;;;17.45;100.00;100412.09;7390309;19;20334;-55
2022/05/02 10:49:13;;;;;;;9.15;2.22;;;;;;;17.37;100.00;100399.78;7390911;19;20013;-55
2022/05/02 10:52:10;;;;;;;4.25;1.63;;;;;;;17.24;100.00;100402.31;7391739;19;20017;-55
2022/05/02 10:54:55;;;;;;;10.40;2.25;;;;;;;17.19;100.00;100400.28;7388325;19;20470;-55
2022/05/02 10:57:27;;;;;;;4.20;2.03;;;;;;;17.14;100.00;100393.34;7390694;19;20010;-55
2022/05/02 10:59:54;;;;;;;5.55;1.83;;;;;;;17.17;100.00;100397.19;7389920;19;20418;-55
2022/05/02 11:02:23;;;;;;;9.40;2.53;;;;;;;17.25;100.00;100401.03;7392254;19;20546;-54
2022/05/02 11:05:06;;;;;;;5.18;1.77;;;;;;;17.18;100.00;100393.09;7389872;19;20015;-54
2022/05/02 11:08:02;;;;;;;3.25;1.48;;;;;;;17.15;100.00;100394.13;7390201;19;20010;-54
2022/05/02 11:10:34;;;;;;;4.93;2.08;;;;;;;17.39;100.00;100397.22;7388882;19;20351;-55
2022/05/02 11:13:15;;;;;;;4.00;1.85;;;;;;;17.63;100.00;100388.34;7389910;19;20018;-55
2022/05/02 11:16:02;;;;;;;3.50;1.27;;;;;;;17.74;100.00;100389.09;7393783;19;20325;-55
2022/05/02 11:21:40;;;;;;;5.22;2.03;;;;;;;17.87;100.00;100397.81;7390931;19;20018;-55
2022/05/02 11:24:22;;;;;;;2.88;1.20;;;;;;;17.90;100.00;100393.97;7389408;19;20014;-55
2022/05/02 11:27:14;;;;;;;2.92;1.05;;;;;;;17.90;100.00;100396.78;7389374;19;20007;-55
2022/05/02 11:29:53;;;;;;;9.57;1.80;;;;;;;17.95;100.00;100398.06;7388245;19;20022;-55
2022/05/02 11:32:27;;;;;;;5.78;1.98;;;;;;;17.90;100.00;100393.97;7392009;19;20478;-55
2022/05/02 11:35:14;;;;;;;4.47;1.80;;;;;;;17.99;100.00;100399.34;7389187;19;20011;-55
2022/05/02 11:38:02;;;;;;;10.20;2.60;;;;;;;18.03;100.00;100402.69;7387785;19;20392;-54
2022/05/02 11:40:32;;;;;;;7.00;1.85;;;;;;;18.08;100.00;100407.53;7387836;19;20014;-55
2022/05/02 11:43:00;;;;;;;;;;;;;;;18.01;100.00;100402.44;7389480;19;20010;-56
2022/05/02 11:45:43;;;;;;;7.25;2.17;;;;;;;17.97;100.00;100396.28;7396594;19;19944;-54
2022/05/02 11:48:50;;;;;;;8.90;1.98;;;;;;;17.94;100.00;100397.28;7392862;19;20074;-55
2022/05/02 11:51:30;;;;;;;11.90;2.55;;;;;;;17.88;100.00;100402.19;7392389;19;20049;-54
2022/05/02 11:53:58;;;;;;;10.45;3.90;;;;;;;17.79;100.00;100402.44;7391287;19;20011;-80
2022/05/02 11:56:38;;;;;;;5.85;2.53;;;;;;;17.72;100.00;100400.09;7389247;19;20049;-81
2022/05/02 11:59:12;;;;;;;5.57;3.03;;;;;;;17.64;100.00;100401.13;7386189;19;20038;-80
2022/05/02 12:01:41;;;;;;;8.88;2.90;;;;;;;17.57;100.00;100408.03;7390743;19;20290;-79
2022/05/02 12:04:08;;;;;;;11.93;3.58;;;;;;;17.42;100.00;100401.84;7394520;19;20468;-80
2022/05/02 12:06:41;;;;;;;7.47;2.53;;;;;;;17.38;100.00;100395.69;7392726;19;20014;-79
2022/05/02 12:09:22;;;;;;;19.10;4.00;;;;;;;17.33;100.00;100399.25;7393143;19;20022;-80
2022/05/02 12:11:53;;;;;;;5.63;2.65;;;;;;;17.28;100.00;100402.84;7394907;19;20401;-80
2022/05/02 12:14:21;;;;;;;6.88;3.05;;;;;;;17.25;100.00;100403.84;7390388;19;20010;-80
2022/05/02 12:17:09;;;;;;;6.72;2.30;;;;;;;17.12;100.00;100400.75;7391913;19;20015;-80
2022/05/02 12:19:40;;;;;;;8.90;2.63;;;;;;;17.05;100.00;100404.06;7392864;19;20098;-80
2022/05/02 12:22:22;;;;;;;5.95;1.95;;;;;;;17.03;100.00;100403.78;7394073;19;20021;-80
2022/05/02 12:24:53;;;;;;;10.00;2.65;;;;;;;16.96;100.00;100401.47;7387699;19;20029;-80